sensor_id;sensor_type;location;lat;lon;timestamp;temperature;humidity
47384;DHT22;33129;52.232;5.192;2022-07-15T00:00:31;19.50;99.90
47384;DHT22;33129;52.232;5.192;2022-07-15T00:03:00;19.40;99.90
47384;DHT22;33129;52.232;5.192;2022-07-15T00:05:26;19.60;99.90
47384;DHT22;33129;52.232;5.192;2022-07-15T00:07:52;18.80;99.90
47384;DHT22;33129;52.232;5.192;2022-07-15T00:10:18;19.30;99.90
47384;DHT22;33129;52.232;5.192;2022-07-15T00:12:52;19.40;99.90
47384;DHT22;33129;52.232;5.192;2022-07-15T00:15:29;19.10;99.90
47384;DHT22;33129;52.232;5.192;2022-07-15T00:17:57;19.50;99.90
47384;DHT22;33129;52.232;5.192;2022-07-15T00:20:27;19.30;99.90
47384;DHT22;33129;52.232;5.192;2022-07-15T00:23:02;19.30;99.90
47384;DHT22;33129;52.232;5.192;2022-07-15T00:25:29;19.60;99.90
47384;DHT22;33129;52.232;5.192;2022-07-15T00:28:03;19.50;99.90
47384;DHT22;33129;52.232;5.192;2022-07-15T00:30:32;19.40;99.90
47384;DHT22;33129;52.232;5.192;2022-07-15T00:33:00;19.40;99.90
47384;DHT22;33129;52.232;5.192;2022-07-15T00:35:27;19.50;99.90
47384;DHT22;33129;52.232;5.192;2022-07-15T00:37:53;19.40;99.90
47384;DHT22;33129;52.232;5.192;2022-07-15T00:40:19;19.60;99.90
47384;DHT22;33129;52.232;5.192;2022-07-15T00:42:45;19.10;99.90
47384;DHT22;33129;52.232;5.192;2022-07-15T00:45:15;19.20;99.90
47384;DHT22;33129;52.232;5.192;2022-07-15T00:47:51;19.40;99.90
47384;DHT22;33129;52.232;5.192;2022-07-15T00:50:20;19.60;99.90
47384;DHT22;33129;52.232;5.192;2022-07-15T00:52:55;19.40;99.90
47384;DHT22;33129;52.232;5.192;2022-07-15T00:55:30;19.40;99.90
47384;DHT22;33129;52.232;5.192;2022-07-15T00:58:00;19.70;99.90
47384;DHT22;33129;52.232;5.192;2022-07-15T01:00:28;19.60;99.90
47384;DHT22;33129;52.232;5.192;2022-07-15T01:02:54;19.30;99.90
47384;DHT22;33129;52.232;5.192;2022-07-15T01:05:21;19.30;99.90
47384;DHT22;33129;52.232;5.192;2022-07-15T01:07:48;19.00;99.90
47384;DHT22;33129;52.232;5.192;2022-07-15T01:10:19;19.50;99.90
47384;DHT22;33129;52.232;5.192;2022-07-15T01:12:47;19.00;99.90
47384;DHT22;33129;52.232;5.192;2022-07-15T01:15:14;19.20;99.90
47384;DHT22;33129;52.232;5.192;2022-07-15T01:17:41;19.10;99.90
47384;DHT22;33129;52.232;5.192;2022-07-15T01:20:10;19.20;99.90
47384;DHT22;33129;52.232;5.192;2022-07-15T01:22:37;19.40;99.90
47384;DHT22;33129;52.232;5.192;2022-07-15T01:25:04;18.80;99.90
47384;DHT22;33129;52.232;5.192;2022-07-15T01:27:30;19.20;99.90
47384;DHT22;33129;52.232;5.192;2022-07-15T01:29:58;19.20;99.90
47384;DHT22;33129;52.232;5.192;2022-07-15T01:32:25;19.20;99.90
47384;DHT22;33129;52.232;5.192;2022-07-15T01:34:52;19.30;99.90
47384;DHT22;33129;52.232;5.192;2022-07-15T01:37:18;19.00;99.90
47384;DHT22;33129;52.232;5.192;2022-07-15T01:39:44;19.10;99.90
47384;DHT22;33129;52.232;5.192;2022-07-15T01:42:09;19.00;99.90
47384;DHT22;33129;52.232;5.192;2022-07-15T01:44:36;19.00;99.90
47384;DHT22;33129;52.232;5.192;2022-07-15T01:47:01;18.80;99.90
47384;DHT22;33129;52.232;5.192;2022-07-15T01:49:27;18.70;99.90
47384;DHT22;33129;52.232;5.192;2022-07-15T01:51:58;18.20;99.90
47384;DHT22;33129;52.232;5.192;2022-07-15T01:54:27;18.80;99.90
47384;DHT22;33129;52.232;5.192;2022-07-15T01:56:54;18.50;99.90
47384;DHT22;33129;52.232;5.192;2022-07-15T01:59:21;18.60;99.90
47384;DHT22;33129;52.232;5.192;2022-07-15T02:01:52;18.60;99.90
47384;DHT22;33129;52.232;5.192;2022-07-15T02:04:19;18.30;99.90
47384;DHT22;33129;52.232;5.192;2022-07-15T02:06:45;18.60;99.90
47384;DHT22;33129;52.232;5.192;2022-07-15T02:09:11;18.90;99.90
47384;DHT22;33129;52.232;5.192;2022-07-15T02:11:37;18.70;99.90
47384;DHT22;33129;52.232;5.192;2022-07-15T02:14:03;18.90;99.90
47384;DHT22;33129;52.232;5.192;2022-07-15T02:16:30;18.70;99.90
47384;DHT22;33129;52.232;5.192;2022-07-15T02:18:56;18.60;99.90
47384;DHT22;33129;52.232;5.192;2022-07-15T02:21:23;18.70;99.90
47384;DHT22;33129;52.232;5.192;2022-07-15T02:23:49;18.70;99.90
47384;DHT22;33129;52.232;5.192;2022-07-15T02:26:15;18.60;99.90
47384;DHT22;33129;52.232;5.192;2022-07-15T02:28:41;18.60;99.90
47384;DHT22;33129;52.232;5.192;2022-07-15T02:31:07;18.60;99.90
47384;DHT22;33129;52.232;5.192;2022-07-15T02:33:33;18.60;99.90
47384;DHT22;33129;52.232;5.192;2022-07-15T02:35:59;18.80;99.90
47384;DHT22;33129;52.232;5.192;2022-07-15T02:38:25;18.30;99.90
47384;DHT22;33129;52.232;5.192;2022-07-15T02:40:51;18.40;99.90
47384;DHT22;33129;52.232;5.192;2022-07-15T02:43:17;18.80;99.90
47384;DHT22;33129;52.232;5.192;2022-07-15T02:45:43;18.50;99.90
47384;DHT22;33129;52.232;5.192;2022-07-15T02:48:09;18.50;99.90
47384;DHT22;33129;52.232;5.192;2022-07-15T02:50:35;18.80;99.90
47384;DHT22;33129;52.232;5.192;2022-07-15T02:53:03;18.60;99.90
47384;DHT22;33129;52.232;5.192;2022-07-15T02:55:29;18.50;99.90
47384;DHT22;33129;52.232;5.192;2022-07-15T02:57:55;18.70;99.90
47384;DHT22;33129;52.232;5.192;2022-07-15T03:00:21;18.80;99.90
47384;DHT22;33129;52.232;5.192;2022-07-15T03:02:48;18.80;99.90
47384;DHT22;33129;52.232;5.192;2022-07-15T03:05:14;18.70;99.90
47384;DHT22;33129;52.232;5.192;2022-07-15T03:07:40;18.70;99.90
47384;DHT22;33129;52.232;5.192;2022-07-15T03:10:08;18.80;99.90
47384;DHT22;33129;52.232;5.192;2022-07-15T03:12:35;18.90;99.90
47384;DHT22;33129;52.232;5.192;2022-07-15T03:15:01;18.80;99.90
47384;DHT22;33129;52.232;5.192;2022-07-15T03:17:27;18.60;99.90
47384;DHT22;33129;52.232;5.192;2022-07-15T03:19:53;19.00;99.90
47384;DHT22;33129;52.232;5.192;2022-07-15T03:22:23;18.20;99.90
47384;DHT22;33129;52.232;5.192;2022-07-15T03:24:49;18.80;99.90
47384;DHT22;33129;52.232;5.192;2022-07-15T03:27:15;18.50;99.90
47384;DHT22;33129;52.232;5.192;2022-07-15T03:29:42;18.60;99.90
47384;DHT22;33129;52.232;5.192;2022-07-15T03:32:08;18.60;99.90
47384;DHT22;33129;52.232;5.192;2022-07-15T03:34:36;18.60;99.90
47384;DHT22;33129;52.232;5.192;2022-07-15T03:37:02;18.60;99.90
47384;DHT22;33129;52.232;5.192;2022-07-15T03:39:28;18.60;99.90
47384;DHT22;33129;52.232;5.192;2022-07-15T03:41:54;18.50;99.90
47384;DHT22;33129;52.232;5.192;2022-07-15T03:44:20;18.60;99.90
47384;DHT22;33129;52.232;5.192;2022-07-15T03:46:46;18.40;99.90
47384;DHT22;33129;52.232;5.192;2022-07-15T03:49:13;18.20;99.90
47384;DHT22;33129;52.232;5.192;2022-07-15T03:51:39;18.00;99.90
47384;DHT22;33129;52.232;5.192;2022-07-15T03:54:05;18.30;99.90
47384;DHT22;33129;52.232;5.192;2022-07-15T03:56:32;18.40;99.90
47384;DHT22;33129;52.232;5.192;2022-07-15T03:58:59;18.10;99.90
47384;DHT22;33129;52.232;5.192;2022-07-15T04:01:25;18.20;99.90
47384;DHT22;33129;52.232;5.192;2022-07-15T04:03:52;17.90;99.90
47384;DHT22;33129;52.232;5.192;2022-07-15T04:06:19;18.30;99.90
47384;DHT22;33129;52.232;5.192;2022-07-15T04:08:46;18.30;99.90
47384;DHT22;33129;52.232;5.192;2022-07-15T04:11:12;18.00;99.90
47384;DHT22;33129;52.232;5.192;2022-07-15T04:13:39;18.50;99.90
47384;DHT22;33129;52.232;5.192;2022-07-15T04:16:07;18.40;99.90
47384;DHT22;33129;52.232;5.192;2022-07-15T04:18:33;18.40;99.90
47384;DHT22;33129;52.232;5.192;2022-07-15T04:20:59;18.20;99.90
47384;DHT22;33129;52.232;5.192;2022-07-15T04:23:25;18.50;99.90
47384;DHT22;33129;52.232;5.192;2022-07-15T04:25:51;18.50;99.90
47384;DHT22;33129;52.232;5.192;2022-07-15T04:28:19;18.60;99.90
47384;DHT22;33129;52.232;5.192;2022-07-15T04:30:45;18.60;99.90
47384;DHT22;33129;52.232;5.192;2022-07-15T04:33:11;18.70;99.90
47384;DHT22;33129;52.232;5.192;2022-07-15T04:35:36;18.70;99.90
47384;DHT22;33129;52.232;5.192;2022-07-15T04:38:04;18.90;99.90
47384;DHT22;33129;52.232;5.192;2022-07-15T04:40:30;19.10;99.90
47384;DHT22;33129;52.232;5.192;2022-07-15T04:42:58;19.20;99.90
47384;DHT22;33129;52.232;5.192;2022-07-15T04:45:25;18.90;99.90
47384;DHT22;33129;52.232;5.192;2022-07-15T04:47:51;19.20;99.90
47384;DHT22;33129;52.232;5.192;2022-07-15T04:50:16;19.70;99.90
47384;DHT22;33129;52.232;5.192;2022-07-15T04:53:00;19.60;99.90
47384;DHT22;33129;52.232;5.192;2022-07-15T04:55:27;19.60;99.90
47384;DHT22;33129;52.232;5.192;2022-07-15T04:57:53;19.80;99.90
47384;DHT22;33129;52.232;5.192;2022-07-15T05:00:19;20.00;99.90
47384;DHT22;33129;52.232;5.192;2022-07-15T05:02:44;20.00;99.90
47384;DHT22;33129;52.232;5.192;2022-07-15T05:05:11;20.20;99.90
47384;DHT22;33129;52.232;5.192;2022-07-15T05:07:37;20.30;99.90
47384;DHT22;33129;52.232;5.192;2022-07-15T05:10:04;20.50;99.90
47384;DHT22;33129;52.232;5.192;2022-07-15T05:12:31;20.50;99.90
47384;DHT22;33129;52.232;5.192;2022-07-15T05:14:56;20.50;99.90
47384;DHT22;33129;52.232;5.192;2022-07-15T05:17:22;20.70;99.90
47384;DHT22;33129;52.232;5.192;2022-07-15T05:19:48;21.00;99.90
47384;DHT22;33129;52.232;5.192;2022-07-15T05:22:14;21.00;99.90
47384;DHT22;33129;52.232;5.192;2022-07-15T05:24:41;20.70;99.90
47384;DHT22;33129;52.232;5.192;2022-07-15T05:27:07;21.10;99.90
47384;DHT22;33129;52.232;5.192;2022-07-15T05:29:33;21.00;99.90
47384;DHT22;33129;52.232;5.192;2022-07-15T05:31:59;21.20;99.90
47384;DHT22;33129;52.232;5.192;2022-07-15T05:34:24;21.10;99.90
47384;DHT22;33129;52.232;5.192;2022-07-15T05:36:50;21.20;99.90
47384;DHT22;33129;52.232;5.192;2022-07-15T05:39:16;21.40;99.90
47384;DHT22;33129;52.232;5.192;2022-07-15T05:41:42;21.50;99.90
47384;DHT22;33129;52.232;5.192;2022-07-15T05:44:07;21.60;99.90
47384;DHT22;33129;52.232;5.192;2022-07-15T05:46:33;21.70;99.90
47384;DHT22;33129;52.232;5.192;2022-07-15T05:48:59;21.70;99.90
47384;DHT22;33129;52.232;5.192;2022-07-15T05:51:25;21.80;99.90
47384;DHT22;33129;52.232;5.192;2022-07-15T05:53:50;21.90;99.90
47384;DHT22;33129;52.232;5.192;2022-07-15T05:56:16;22.00;99.90
47384;DHT22;33129;52.232;5.192;2022-07-15T05:58:42;22.00;99.90
47384;DHT22;33129;52.232;5.192;2022-07-15T06:01:07;22.10;99.90
47384;DHT22;33129;52.232;5.192;2022-07-15T06:03:33;22.00;99.90
47384;DHT22;33129;52.232;5.192;2022-07-15T06:05:59;22.20;99.90
47384;DHT22;33129;52.232;5.192;2022-07-15T06:08:25;22.30;99.90
47384;DHT22;33129;52.232;5.192;2022-07-15T06:10:50;22.60;99.90
47384;DHT22;33129;52.232;5.192;2022-07-15T06:13:16;22.50;99.90
47384;DHT22;33129;52.232;5.192;2022-07-15T06:15:42;22.60;99.90
47384;DHT22;33129;52.232;5.192;2022-07-15T06:18:08;23.00;99.90
47384;DHT22;33129;52.232;5.192;2022-07-15T06:20:34;23.00;99.90
47384;DHT22;33129;52.232;5.192;2022-07-15T06:23:00;22.90;99.90
47384;DHT22;33129;52.232;5.192;2022-07-15T06:25:25;23.00;99.90
47384;DHT22;33129;52.232;5.192;2022-07-15T06:27:51;23.10;99.90
47384;DHT22;33129;52.232;5.192;2022-07-15T06:30:17;22.70;99.90
47384;DHT22;33129;52.232;5.192;2022-07-15T06:32:43;22.60;99.90
47384;DHT22;33129;52.232;5.192;2022-07-15T06:35:08;22.80;99.90
47384;DHT22;33129;52.232;5.192;2022-07-15T06:37:34;23.30;99.90
47384;DHT22;33129;52.232;5.192;2022-07-15T06:40:01;23.50;99.90
47384;DHT22;33129;52.232;5.192;2022-07-15T06:42:27;23.60;99.90
47384;DHT22;33129;52.232;5.192;2022-07-15T06:44:52;23.80;99.90
47384;DHT22;33129;52.232;5.192;2022-07-15T06:47:19;24.10;99.90
47384;DHT22;33129;52.232;5.192;2022-07-15T06:49:46;24.40;99.90
47384;DHT22;33129;52.232;5.192;2022-07-15T06:52:14;24.40;99.90
47384;DHT22;33129;52.232;5.192;2022-07-15T06:54:40;24.80;99.90
47384;DHT22;33129;52.232;5.192;2022-07-15T06:57:06;24.90;99.90
47384;DHT22;33129;52.232;5.192;2022-07-15T06:59:31;24.90;99.90
47384;DHT22;33129;52.232;5.192;2022-07-15T07:01:58;24.90;99.90
47384;DHT22;33129;52.232;5.192;2022-07-15T07:04:24;24.90;99.90
47384;DHT22;33129;52.232;5.192;2022-07-15T07:06:50;25.00;99.90
47384;DHT22;33129;52.232;5.192;2022-07-15T07:09:15;24.80;99.90
47384;DHT22;33129;52.232;5.192;2022-07-15T07:11:41;25.00;99.90
47384;DHT22;33129;52.232;5.192;2022-07-15T07:14:08;25.00;99.90
47384;DHT22;33129;52.232;5.192;2022-07-15T07:16:34;25.40;99.90
47384;DHT22;33129;52.232;5.192;2022-07-15T07:19:00;25.20;99.90
47384;DHT22;33129;52.232;5.192;2022-07-15T07:21:26;25.20;99.90
47384;DHT22;33129;52.232;5.192;2022-07-15T07:23:52;25.20;99.90
47384;DHT22;33129;52.232;5.192;2022-07-15T07:26:18;25.60;99.90
47384;DHT22;33129;52.232;5.192;2022-07-15T07:28:44;24.70;99.90
47384;DHT22;33129;52.232;5.192;2022-07-15T07:31:12;24.80;99.90
47384;DHT22;33129;52.232;5.192;2022-07-15T07:33:38;25.40;99.90
47384;DHT22;33129;52.232;5.192;2022-07-15T07:36:06;25.10;99.90
47384;DHT22;33129;52.232;5.192;2022-07-15T07:38:33;25.60;99.90
47384;DHT22;33129;52.232;5.192;2022-07-15T07:41:00;25.80;99.90
47384;DHT22;33129;52.232;5.192;2022-07-15T07:43:27;25.90;99.90
47384;DHT22;33129;52.232;5.192;2022-07-15T07:45:53;25.20;99.90
47384;DHT22;33129;52.232;5.192;2022-07-15T07:48:19;25.30;99.90
47384;DHT22;33129;52.232;5.192;2022-07-15T07:50:46;24.70;99.90
47384;DHT22;33129;52.232;5.192;2022-07-15T07:53:12;23.90;99.90
47384;DHT22;33129;52.232;5.192;2022-07-15T07:55:38;24.20;99.90
47384;DHT22;33129;52.232;5.192;2022-07-15T07:58:05;24.90;99.90
47384;DHT22;33129;52.232;5.192;2022-07-15T08:00:31;25.30;99.90
47384;DHT22;33129;52.232;5.192;2022-07-15T08:02:59;25.20;99.90
47384;DHT22;33129;52.232;5.192;2022-07-15T08:05:26;25.70;99.90
47384;DHT22;33129;52.232;5.192;2022-07-15T08:08:16;25.60;99.90
47384;DHT22;33129;52.232;5.192;2022-07-15T08:10:46;25.80;99.90
47384;DHT22;33129;52.232;5.192;2022-07-15T08:13:14;26.30;99.90
47384;DHT22;33129;52.232;5.192;2022-07-15T08:15:41;26.10;99.90
47384;DHT22;33129;52.232;5.192;2022-07-15T08:18:07;26.20;99.90
47384;DHT22;33129;52.232;5.192;2022-07-15T08:20:33;26.10;99.90
47384;DHT22;33129;52.232;5.192;2022-07-15T08:22:59;25.70;99.90
47384;DHT22;33129;52.232;5.192;2022-07-15T08:25:29;25.30;99.90
47384;DHT22;33129;52.232;5.192;2022-07-15T08:27:56;25.10;99.90
47384;DHT22;33129;52.232;5.192;2022-07-15T08:30:25;24.70;99.90
47384;DHT22;33129;52.232;5.192;2022-07-15T08:32:51;24.30;99.90
47384;DHT22;33129;52.232;5.192;2022-07-15T08:35:17;24.10;99.90
47384;DHT22;33129;52.232;5.192;2022-07-15T08:37:43;24.00;99.90
47384;DHT22;33129;52.232;5.192;2022-07-15T08:40:09;23.90;99.90
47384;DHT22;33129;52.232;5.192;2022-07-15T08:42:37;23.90;99.90
47384;DHT22;33129;52.232;5.192;2022-07-15T08:45:13;24.10;99.90
47384;DHT22;33129;52.232;5.192;2022-07-15T08:47:45;24.50;99.90
47384;DHT22;33129;52.232;5.192;2022-07-15T08:50:15;24.80;99.90
47384;DHT22;33129;52.232;5.192;2022-07-15T08:52:43;25.30;99.90
47384;DHT22;33129;52.232;5.192;2022-07-15T08:55:10;26.00;99.90
47384;DHT22;33129;52.232;5.192;2022-07-15T08:57:36;26.30;99.90
47384;DHT22;33129;52.232;5.192;2022-07-15T09:00:04;26.50;99.90
47384;DHT22;33129;52.232;5.192;2022-07-15T09:02:34;27.00;99.90
47384;DHT22;33129;52.232;5.192;2022-07-15T09:05:27;26.90;99.90
47384;DHT22;33129;52.232;5.192;2022-07-15T09:10:54;27.00;99.90
47384;DHT22;33129;52.232;5.192;2022-07-15T09:13:39;26.60;99.90
47384;DHT22;33129;52.232;5.192;2022-07-15T09:16:07;26.20;99.90
47384;DHT22;33129;52.232;5.192;2022-07-15T09:18:39;25.80;99.90
47384;DHT22;33129;52.232;5.192;2022-07-15T09:21:23;25.70;99.90
47384;DHT22;33129;52.232;5.192;2022-07-15T09:23:52;26.00;99.90
47384;DHT22;33129;52.232;5.192;2022-07-15T09:26:27;26.50;99.90
47384;DHT22;33129;52.232;5.192;2022-07-15T09:29:03;26.90;99.90
47384;DHT22;33129;52.232;5.192;2022-07-15T09:31:57;27.00;99.90
47384;DHT22;33129;52.232;5.192;2022-07-15T09:35:02;26.80;99.90
47384;DHT22;33129;52.232;5.192;2022-07-15T09:37:59;27.00;99.90
47384;DHT22;33129;52.232;5.192;2022-07-15T09:40:25;26.80;99.90
47384;DHT22;33129;52.232;5.192;2022-07-15T09:43:04;27.00;99.90
47384;DHT22;33129;52.232;5.192;2022-07-15T09:45:32;26.50;99.90
47384;DHT22;33129;52.232;5.192;2022-07-15T09:48:09;26.30;99.90
47384;DHT22;33129;52.232;5.192;2022-07-15T09:50:39;26.20;99.90
47384;DHT22;33129;52.232;5.192;2022-07-15T09:53:11;25.80;99.90
47384;DHT22;33129;52.232;5.192;2022-07-15T09:55:41;25.60;99.90
47384;DHT22;33129;52.232;5.192;2022-07-15T09:58:07;26.10;99.90
47384;DHT22;33129;52.232;5.192;2022-07-15T10:00:37;26.40;99.90
47384;DHT22;33129;52.232;5.192;2022-07-15T10:03:03;26.30;99.90
47384;DHT22;33129;52.232;5.192;2022-07-15T10:05:29;26.30;99.90
47384;DHT22;33129;52.232;5.192;2022-07-15T10:07:58;26.40;99.90
47384;DHT22;33129;52.232;5.192;2022-07-15T10:10:25;26.10;99.90
47384;DHT22;33129;52.232;5.192;2022-07-15T10:13:00;25.90;99.90
47384;DHT22;33129;52.232;5.192;2022-07-15T10:22:12;25.80;99.90
47384;DHT22;33129;52.232;5.192;2022-07-15T10:30:40;26.60;99.90
47384;DHT22;33129;52.232;5.192;2022-07-15T10:35:49;27.20;99.90
47384;DHT22;33129;52.232;5.192;2022-07-15T10:41:11;26.60;99.90
47384;DHT22;33129;52.232;5.192;2022-07-15T10:43:51;26.40;99.90
47384;DHT22;33129;52.232;5.192;2022-07-15T10:46:26;26.60;99.90
47384;DHT22;33129;52.232;5.192;2022-07-15T10:49:26;26.70;99.90
47384;DHT22;33129;52.232;5.192;2022-07-15T10:51:53;26.70;99.90
47384;DHT22;33129;52.232;5.192;2022-07-15T10:56:47;27.20;99.90
47384;DHT22;33129;52.232;5.192;2022-07-15T10:59:19;27.50;99.90
47384;DHT22;33129;52.232;5.192;2022-07-15T11:04:35;27.00;99.90
47384;DHT22;33129;52.232;5.192;2022-07-15T11:09:54;26.70;99.90
47384;DHT22;33129;52.232;5.192;2022-07-15T11:15:10;26.30;99.90
47384;DHT22;33129;52.232;5.192;2022-07-15T11:17:42;26.20;99.90
47384;DHT22;33129;52.232;5.192;2022-07-15T11:20:11;26.00;99.90
47384;DHT22;33129;52.232;5.192;2022-07-15T11:22:51;25.90;99.90
47384;DHT22;33129;52.232;5.192;2022-07-15T11:25:21;26.10;99.90
47384;DHT22;33129;52.232;5.192;2022-07-15T11:28:14;26.10;99.90
47384;DHT22;33129;52.232;5.192;2022-07-15T11:30:47;25.80;99.90
47384;DHT22;33129;52.232;5.192;2022-07-15T11:33:18;25.80;99.90
47384;DHT22;33129;52.232;5.192;2022-07-15T11:35:55;26.00;99.90
47384;DHT22;33129;52.232;5.192;2022-07-15T11:38:23;26.00;99.90
47384;DHT22;33129;52.232;5.192;2022-07-15T11:40:52;26.10;99.90
47384;DHT22;33129;52.232;5.192;2022-07-15T11:43:38;26.10;99.90
47384;DHT22;33129;52.232;5.192;2022-07-15T11:46:22;25.90;99.90
47384;DHT22;33129;52.232;5.192;2022-07-15T11:48:49;26.10;99.90
47384;DHT22;33129;52.232;5.192;2022-07-15T11:51:16;26.20;99.90
47384;DHT22;33129;52.232;5.192;2022-07-15T11:53:53;26.40;99.90
47384;DHT22;33129;52.232;5.192;2022-07-15T11:56:20;26.60;99.90
47384;DHT22;33129;52.232;5.192;2022-07-15T11:58:53;26.80;99.90
47384;DHT22;33129;52.232;5.192;2022-07-15T12:01:23;26.50;99.90
47384;DHT22;33129;52.232;5.192;2022-07-15T12:03:52;26.00;99.90
47384;DHT22;33129;52.232;5.192;2022-07-15T12:06:24;25.70;99.90
47384;DHT22;33129;52.232;5.192;2022-07-15T12:08:57;25.60;99.90
47384;DHT22;33129;52.232;5.192;2022-07-15T12:11:35;25.60;99.90
47384;DHT22;33129;52.232;5.192;2022-07-15T12:14:29;25.70;99.90
47384;DHT22;33129;52.232;5.192;2022-07-15T12:16:56;25.90;99.90
47384;DHT22;33129;52.232;5.192;2022-07-15T12:19:28;26.00;99.90
47384;DHT22;33129;52.232;5.192;2022-07-15T12:21:58;26.30;99.90
47384;DHT22;33129;52.232;5.192;2022-07-15T12:24:41;26.80;99.90
47384;DHT22;33129;52.232;5.192;2022-07-15T12:27:09;26.70;99.90
47384;DHT22;33129;52.232;5.192;2022-07-15T12:29:36;26.60;99.90
47384;DHT22;33129;52.232;5.192;2022-07-15T12:32:11;26.40;99.90
47384;DHT22;33129;52.232;5.192;2022-07-15T12:34:55;26.50;99.90
47384;DHT22;33129;52.232;5.192;2022-07-15T12:40:12;26.40;99.90
47384;DHT22;33129;52.232;5.192;2022-07-15T12:42:42;26.00;99.90
47384;DHT22;33129;52.232;5.192;2022-07-15T12:48:01;26.20;99.90
47384;DHT22;33129;52.232;5.192;2022-07-15T12:53:17;26.10;99.90
47384;DHT22;33129;52.232;5.192;2022-07-15T12:55:47;26.00;99.90
47384;DHT22;33129;52.232;5.192;2022-07-15T12:58:16;26.10;99.90
47384;DHT22;33129;52.232;5.192;2022-07-15T13:00:44;26.20;99.90
47384;DHT22;33129;52.232;5.192;2022-07-15T13:05:55;26.90;99.90
47384;DHT22;33129;52.232;5.192;2022-07-15T13:08:26;27.00;99.90
47384;DHT22;33129;52.232;5.192;2022-07-15T13:10:58;26.80;99.90
47384;DHT22;33129;52.232;5.192;2022-07-15T13:13:26;26.80;99.90
47384;DHT22;33129;52.232;5.192;2022-07-15T13:15:53;27.30;99.90
47384;DHT22;33129;52.232;5.192;2022-07-15T13:18:21;27.50;99.90
47384;DHT22;33129;52.232;5.192;2022-07-15T13:20:47;27.50;99.90
47384;DHT22;33129;52.232;5.192;2022-07-15T13:23:14;27.50;99.90
47384;DHT22;33129;52.232;5.192;2022-07-15T13:25:40;27.50;99.90
47384;DHT22;33129;52.232;5.192;2022-07-15T13:28:09;27.20;99.90
47384;DHT22;33129;52.232;5.192;2022-07-15T13:30:35;27.50;99.90
47384;DHT22;33129;52.232;5.192;2022-07-15T13:33:03;27.60;99.90
47384;DHT22;33129;52.232;5.192;2022-07-15T13:35:29;27.70;99.90
47384;DHT22;33129;52.232;5.192;2022-07-15T13:37:55;27.70;99.90
47384;DHT22;33129;52.232;5.192;2022-07-15T13:40:22;27.60;99.90
47384;DHT22;33129;52.232;5.192;2022-07-15T13:42:49;27.60;99.90
47384;DHT22;33129;52.232;5.192;2022-07-15T13:45:21;27.40;99.90
47384;DHT22;33129;52.232;5.192;2022-07-15T13:47:48;27.50;99.90
47384;DHT22;33129;52.232;5.192;2022-07-15T13:50:13;27.30;99.90
47384;DHT22;33129;52.232;5.192;2022-07-15T13:53:00;27.30;99.90
47384;DHT22;33129;52.232;5.192;2022-07-15T13:55:27;27.40;99.90
47384;DHT22;33129;52.232;5.192;2022-07-15T13:57:53;27.30;99.90
47384;DHT22;33129;52.232;5.192;2022-07-15T14:00:21;27.30;99.90
47384;DHT22;33129;52.232;5.192;2022-07-15T14:02:49;27.30;99.90
47384;DHT22;33129;52.232;5.192;2022-07-15T14:05:16;27.20;99.90
47384;DHT22;33129;52.232;5.192;2022-07-15T14:07:43;27.30;99.90
47384;DHT22;33129;52.232;5.192;2022-07-15T14:10:09;27.40;99.90
47384;DHT22;33129;52.232;5.192;2022-07-15T14:12:36;27.10;99.90
47384;DHT22;33129;52.232;5.192;2022-07-15T14:15:03;27.20;99.90
47384;DHT22;33129;52.232;5.192;2022-07-15T14:17:30;27.10;99.90
47384;DHT22;33129;52.232;5.192;2022-07-15T14:19:56;26.80;99.90
47384;DHT22;33129;52.232;5.192;2022-07-15T14:22:23;26.70;99.90
47384;DHT22;33129;52.232;5.192;2022-07-15T14:24:51;26.40;99.90
47384;DHT22;33129;52.232;5.192;2022-07-15T14:27:17;26.60;99.90
47384;DHT22;33129;52.232;5.192;2022-07-15T14:29:43;26.90;99.90
47384;DHT22;33129;52.232;5.192;2022-07-15T14:32:09;26.80;99.90
47384;DHT22;33129;52.232;5.192;2022-07-15T14:34:35;26.50;99.90
47384;DHT22;33129;52.232;5.192;2022-07-15T14:37:00;26.40;99.90
47384;DHT22;33129;52.232;5.192;2022-07-15T14:39:26;26.30;99.90
47384;DHT22;33129;52.232;5.192;2022-07-15T14:41:52;26.20;99.90
47384;DHT22;33129;52.232;5.192;2022-07-15T14:44:17;26.30;99.90
47384;DHT22;33129;52.232;5.192;2022-07-15T14:46:43;26.50;99.90
47384;DHT22;33129;52.232;5.192;2022-07-15T14:49:09;26.80;99.90
47384;DHT22;33129;52.232;5.192;2022-07-15T14:51:35;26.70;99.90
47384;DHT22;33129;52.232;5.192;2022-07-15T14:54:00;26.80;99.90
47384;DHT22;33129;52.232;5.192;2022-07-15T14:56:26;26.50;99.90
47384;DHT22;33129;52.232;5.192;2022-07-15T14:58:52;26.70;99.90
47384;DHT22;33129;52.232;5.192;2022-07-15T15:01:17;26.70;99.90
47384;DHT22;33129;52.232;5.192;2022-07-15T15:03:43;26.50;99.90
47384;DHT22;33129;52.232;5.192;2022-07-15T15:06:09;26.40;99.90
47384;DHT22;33129;52.232;5.192;2022-07-15T15:08:35;26.20;99.90
47384;DHT22;33129;52.232;5.192;2022-07-15T15:11:01;26.20;99.90
47384;DHT22;33129;52.232;5.192;2022-07-15T15:13:27;26.40;99.90
47384;DHT22;33129;52.232;5.192;2022-07-15T15:15:53;26.20;99.90
47384;DHT22;33129;52.232;5.192;2022-07-15T15:18:19;26.20;99.90
47384;DHT22;33129;52.232;5.192;2022-07-15T15:20:44;26.20;99.90
47384;DHT22;33129;52.232;5.192;2022-07-15T15:23:10;25.90;99.90
47384;DHT22;33129;52.232;5.192;2022-07-15T15:25:36;26.00;99.90
47384;DHT22;33129;52.232;5.192;2022-07-15T15:28:21;26.10;99.90
47384;DHT22;33129;52.232;5.192;2022-07-15T15:30:46;26.30;99.90
47384;DHT22;33129;52.232;5.192;2022-07-15T15:33:12;26.30;99.90
47384;DHT22;33129;52.232;5.192;2022-07-15T15:35:38;26.40;99.90
47384;DHT22;33129;52.232;5.192;2022-07-15T15:38:04;26.30;99.90
47384;DHT22;33129;52.232;5.192;2022-07-15T15:40:29;26.40;99.90
47384;DHT22;33129;52.232;5.192;2022-07-15T15:42:55;26.20;99.90
47384;DHT22;33129;52.232;5.192;2022-07-15T15:45:21;26.10;99.90
47384;DHT22;33129;52.232;5.192;2022-07-15T15:47:46;26.00;99.90
47384;DHT22;33129;52.232;5.192;2022-07-15T15:50:12;26.00;99.90
47384;DHT22;33129;52.232;5.192;2022-07-15T15:52:38;26.00;99.90
47384;DHT22;33129;52.232;5.192;2022-07-15T15:55:04;25.90;99.90
47384;DHT22;33129;52.232;5.192;2022-07-15T15:57:31;26.00;99.90
47384;DHT22;33129;52.232;5.192;2022-07-15T15:59:56;25.60;99.90
47384;DHT22;33129;52.232;5.192;2022-07-15T16:02:22;25.70;99.90
47384;DHT22;33129;52.232;5.192;2022-07-15T16:04:48;25.80;99.90
47384;DHT22;33129;52.232;5.192;2022-07-15T16:07:13;25.60;99.90
47384;DHT22;33129;52.232;5.192;2022-07-15T16:09:39;25.70;99.90
47384;DHT22;33129;52.232;5.192;2022-07-15T16:12:05;25.70;99.90
47384;DHT22;33129;52.232;5.192;2022-07-15T16:14:31;25.90;99.90
47384;DHT22;33129;52.232;5.192;2022-07-15T16:16:57;26.00;99.90
47384;DHT22;33129;52.232;5.192;2022-07-15T16:19:23;26.10;99.90